Regine — DFVJ2 — position and weather

sailwx.info

Track history (hours):
 
Tides and Currents Weather Stations Pressure Air Temp Water Temp Dewpoint Dewpoint Depression Visibility Wind Speed Wind Dir Waves Ship Positions

Regine

Last reported at 2018-Jan-03 15:24 UTC. Time now 2018-Jan-21 20:40 UTC.
Position N 35°54' E 014°41'.
Warning: this ship's position is 18 days out of date.

Length 160 m; draft 7.9 m.

Type: Ship. MMSI: 218170000.

Date/timePositionNaut miles runAvg speedWind from/ knotsBaromVisibWave heightAir tempDewpointWater temp
2018-Jan-03 15:24N 35°54' E 014°41'718.4
2018-Jan-03 15:00N 35°54' E 014°32'1 0.0
2018-Jan-02 19:25N 35°54' E 014°32'2 4.1
2018-Jan-02 19:00N 35°54' E 014°34'2 4.4
2018-Jan-02 18:30N 35°53' E 014°36'3 6.6
2018-Jan-02 17:59N 35°50' E 014°36'0 0.2
2018-Jan-02 17:30N 35°49' E 014°36'0 0.0
2018-Jan-02 17:00N 35°49' E 014°36'0 0.0
2018-Jan-02 16:30N 35°49' E 014°36'0 0.1
2018-Jan-02 16:00N 35°50' E 014°36'0 0.0
2018-Jan-02 15:30N 35°50' E 014°36'0 0.0
2018-Jan-02 15:00N 35°50' E 014°36'0 0.1
2018-Jan-02 14:30N 35°50' E 014°36'0 0.0
2018-Jan-02 14:00N 35°50' E 014°36'0 0.0
2018-Jan-02 13:30N 35°50' E 014°36'0 0.6
2018-Jan-02 12:57N 35°50' E 014°36'1 2.0
2018-Jan-02 12:25N 35°50' E 014°37'1 0.6
2018-Jan-02 11:07N 35°50' E 014°36'0 0.1
2018-Jan-02 10:54N 35°50' E 014°36'0 0.1
2018-Jan-02 10:30N 35°50' E 014°36'0 0.3
2018-Jan-02 10:00N 35°50' E 014°36'710.0
2018-Jan-02 09:19N 35°53' E 014°43'6 6.0
2018-Jan-02 08:19N 35°57' E 014°48'0 0.0
2018-Jan-02 07:55N 35°57' E 014°48'0 0.0
2018-Jan-02 07:25N 35°57' E 014°48'0 0.0
2018-Jan-02 06:55N 35°57' E 014°48'0 0.3
2018-Jan-02 06:30N 35°57' E 014°48'2 4.8
2018-Jan-02 06:00N 35°60' E 014°49'918.0
2018-Jan-02 05:30N 36°02' E 014°39'1817.8
2018-Jan-02 04:30N 36°07' E 014°17'916.8
2018-Jan-02 04:00N 36°10' E 014°07'714.1
2018-Jan-02 03:30N 36°13' E 013°60'713.9
2018-Jan-02 03:00N 36°16' E 013°52'713.5
2018-Jan-02 02:30N 36°19' E 013°44'55215.6
2017-Dec-31 15:02N 36°54' E 002°18'36518.9
2017-Dec-30 19:43N 36°01' W 005°12'521.4
2017-Dec-30 19:30N 36°00' W 005°17'1121.4
2017-Dec-30 19:00N 35°57' W 005°30'14919.1
2017-Dec-30 11:11N 36°23' W 008°32'418.9
2017-Dec-30 10:57N 36°24' W 008°37'918.9
2017-Dec-30 10:30N 36°26' W 008°48'1018.9
2017-Dec-30 10:00N 36°29' W 008°59'918.5
2017-Dec-30 09:30N 36°31' W 009°10'918.1
2017-Dec-30 08:59N 36°36' W 009°20'918.7
2017-Dec-30 08:30N 36°42' W 009°28'7918.8
2017-Dec-30 04:19N 37°58' W 009°54'619.1
2017-Dec-30 04:00N 38°04' W 009°55'1219.1
2017-Dec-30 03:24N 38°16' W 009°59'719.1
2017-Dec-30 03:00N 38°23' W 010°00'1019.2
2017-Dec-30 02:30N 38°32' W 010°02'1019.0
2017-Dec-30 02:00N 38°42' W 010°05'919.0
2017-Dec-30 01:30N 38°51' W 010°05'1019.2
2017-Dec-30 01:00N 39°01' W 010°04'918.8
2017-Dec-30 00:30N 39°10' W 010°04'918.9
2017-Dec-30 00:01N 39°20' W 010°04'69117.3
2017-Dec-28 08:05N 49°49' W 003°21'1519.6
2017-Dec-28 07:20N 49°56' W 003°02'619.3
2017-Dec-28 07:00N 49°59' W 002°53'1019.1
2017-Dec-28 06:30N 50°01' W 002°38'8717.0
2017-Dec-28 01:22N 50°24' W 000°27'617.5
2017-Dec-28 01:00N 50°26' W 000°17'917.9
2017-Dec-28 00:30N 50°29' W 000°04'918.3
2017-Dec-28 00:00N 50°32' E 000°09'918.7
2017-Dec-27 23:30N 50°35' E 000°24'918.8
2017-Dec-27 23:00N 50°37' E 000°38'1019.4
2017-Dec-27 22:30N 50°43' E 000°50'1019.7
2017-Dec-27 21:59N 50°50' E 001°02'1319.3
2017-Dec-27 21:17N 50°59' E 001°18'518.7
2017-Dec-27 21:00N 51°02' E 001°25'917.8
2017-Dec-27 20:30N 51°07' E 001°36'917.4
2017-Dec-27 20:00N 51°14' E 001°45'917.9
2017-Dec-27 19:30N 51°22' E 001°51'817.0
2017-Dec-27 19:00N 51°29' E 001°60'916.9
2017-Dec-27 18:30N 51°34' E 002°10'3613.2
2017-Dec-27 15:45N 51°47' E 003°05'416.6
2017-Dec-27 15:29N 51°47' E 003°12'5 0.7
2017-Dec-27 09:04N 51°46' E 003°19'0 0.0
2017-Dec-27 08:28N 51°46' E 003°19'0 0.0
2017-Dec-27 08:00N 51°46' E 003°19'0 0.0
2017-Dec-27 07:28N 51°46' E 003°19'0 0.0
2017-Dec-27 06:59N 51°46' E 003°19'0 0.0
2017-Dec-27 06:29N 51°46' E 003°19'0 0.0
2017-Dec-27 05:17N 51°46' E 003°19'0 0.0
2017-Dec-27 05:00N 51°46' E 003°19'0 0.0
2017-Dec-27 04:29N 51°46' E 003°19'0 0.0
2017-Dec-27 03:44N 51°46' E 003°19'0 0.0
2017-Dec-27 03:23N 51°46' E 003°19'0 0.0
2017-Dec-27 00:03N 51°46' E 003°19'0 0.0
2017-Dec-26 23:59N 51°46' E 003°19'0 0.0
2017-Dec-26 23:20N 51°46' E 003°19'0 0.0
2017-Dec-26 22:58N 51°46' E 003°19'6612.8
2017-Dec-26 17:48N 52°50' E 003°48'2210.7
2017-Dec-26 15:45N 53°05' E 004°15'2411.3
2017-Dec-26 13:37N 53°26' E 004°35'511.0
2017-Dec-26 13:07N 53°30' E 004°41'111.0
2017-Dec-26 13:00N 53°30' E 004°43'612.5
2017-Dec-26 12:29N 53°33' E 004°53'714.0
2017-Dec-26 12:00N 53°35' E 005°04'714.1
2017-Dec-26 11:28N 53°37' E 005°16'10016.2
2017-Dec-26 05:18N 54°01' E 007°60'618.8
2017-Dec-26 05:00N 54°00' E 008°10'1117.1
2017-Dec-26 04:22N 53°59' E 008°28'716.5
2017-Dec-26 03:58N 53°57' E 008°39'816.2
2017-Dec-26 03:30N 53°51' E 008°46'815.3
2017-Dec-26 03:00N 53°51' E 008°59'612.0
2017-Dec-26 02:30N 53°54' E 009°09'0 0.0
2017-Dec-26 02:00N 53°54' E 009°09'0 0.7
2017-Dec-26 01:30N 53°54' E 009°09'1 2.7
2017-Dec-26 01:00N 53°55' E 009°11'4 8.0
2017-Dec-26 00:31N 53°58' E 009°15'4 8.0
2017-Dec-26 00:00N 54°01' E 009°18'4 7.3
2017-Dec-25 23:30N 54°05' E 009°19'4 7.8
2017-Dec-25 23:00N 54°09' E 009°21'2 4.4
2017-Dec-25 22:30N 54°10' E 009°25'4 8.2
2017-Dec-25 22:00N 54°11' E 009°31'4 8.1
2017-Dec-25 21:31N 54°14' E 009°36'2 4.1
2017-Dec-25 21:00N 54°16' E 009°38'3 5.0
2017-Dec-25 20:30N 54°18' E 009°41'3 6.4
2017-Dec-25 20:00N 54°20' E 009°44'4 7.7
2017-Dec-25 19:30N 54°22' E 009°50'24 4.2
2017-Dec-25 13:50N 54°32' E 010°27'514.8
2017-Dec-25 13:30N 54°34' E 010°34'714.5
2017-Dec-25 13:00N 54°35' E 010°47'714.7
2017-Dec-25 12:30N 54°36' E 010°59'714.7
2017-Dec-25 12:00N 54°36' E 011°12'816.3
2017-Dec-25 11:30N 54°32' E 011°25'918.2
2017-Dec-25 11:00N 54°28' E 011°39'1318.3
2017-Dec-25 10:17N 54°21' E 011°57'518.1
2017-Dec-25 10:00N 54°17' E 012°03'712.4
2017-Dec-25 09:28N 54°10' E 012°06'1 0.2
2017-Dec-25 03:06N 54°09' E 012°07'0 0.0
2017-Dec-24 18:50N 54°09' E 012°07'0 0.0
2017-Dec-24 16:31N 54°09' E 012°07'0 0.0
2017-Dec-24 16:01N 54°09' E 012°07'  
Track history (hours):
 
Tides and Currents Weather Stations Pressure Air Temp Water Temp Dewpoint Dewpoint Depression Visibility Wind Speed Wind Dir Waves Ship Positions

Regine

Last reported at 2018-Jan-03 15:24 UTC. Time now 2018-Jan-21 20:40 UTC.
Position N 35°54' E 014°41'.
Warning: this ship's position is 18 days out of date.

Length 160 m; draft 7.9 m.

Type: Ship. MMSI: 218170000.

Date/timePositionNaut miles runAvg speedWind from/ knotsBaromVisibWave heightAir tempDewpointWater temp
2018-Jan-03 15:24N 35°54' E 014°41'718.4
2018-Jan-03 15:00N 35°54' E 014°32'1 0.0
2018-Jan-02 19:25N 35°54' E 014°32'2 4.1
2018-Jan-02 19:00N 35°54' E 014°34'2 4.4
2018-Jan-02 18:30N 35°53' E 014°36'3 6.6
2018-Jan-02 17:59N 35°50' E 014°36'0 0.2
2018-Jan-02 17:30N 35°49' E 014°36'0 0.0
2018-Jan-02 17:00N 35°49' E 014°36'0 0.0
2018-Jan-02 16:30N 35°49' E 014°36'0 0.1
2018-Jan-02 16:00N 35°50' E 014°36'0 0.0
2018-Jan-02 15:30N 35°50' E 014°36'0 0.0
2018-Jan-02 15:00N 35°50' E 014°36'0 0.1
2018-Jan-02 14:30N 35°50' E 014°36'0 0.0
2018-Jan-02 14:00N 35°50' E 014°36'0 0.0
2018-Jan-02 13:30N 35°50' E 014°36'0 0.6
2018-Jan-02 12:57N 35°50' E 014°36'1 2.0
2018-Jan-02 12:25N 35°50' E 014°37'1 0.6
2018-Jan-02 11:07N 35°50' E 014°36'0 0.1
2018-Jan-02 10:54N 35°50' E 014°36'0 0.1
2018-Jan-02 10:30N 35°50' E 014°36'0 0.3
2018-Jan-02 10:00N 35°50' E 014°36'710.0
2018-Jan-02 09:19N 35°53' E 014°43'6 6.0
2018-Jan-02 08:19N 35°57' E 014°48'0 0.0
2018-Jan-02 07:55N 35°57' E 014°48'0 0.0
2018-Jan-02 07:25N 35°57' E 014°48'0 0.0
2018-Jan-02 06:55N 35°57' E 014°48'0 0.3
2018-Jan-02 06:30N 35°57' E 014°48'2 4.8
2018-Jan-02 06:00N 35°60' E 014°49'918.0
2018-Jan-02 05:30N 36°02' E 014°39'1817.8
2018-Jan-02 04:30N 36°07' E 014°17'916.8
2018-Jan-02 04:00N 36°10' E 014°07'714.1
2018-Jan-02 03:30N 36°13' E 013°60'713.9
2018-Jan-02 03:00N 36°16' E 013°52'713.5
2018-Jan-02 02:30N 36°19' E 013°44'55215.6
2017-Dec-31 15:02N 36°54' E 002°18'36518.9
2017-Dec-30 19:43N 36°01' W 005°12'521.4
2017-Dec-30 19:30N 36°00' W 005°17'1121.4
2017-Dec-30 19:00N 35°57' W 005°30'14919.1
2017-Dec-30 11:11N 36°23' W 008°32'418.9
2017-Dec-30 10:57N 36°24' W 008°37'918.9
2017-Dec-30 10:30N 36°26' W 008°48'1018.9
2017-Dec-30 10:00N 36°29' W 008°59'918.5
2017-Dec-30 09:30N 36°31' W 009°10'918.1
2017-Dec-30 08:59N 36°36' W 009°20'918.7
2017-Dec-30 08:30N 36°42' W 009°28'7918.8
2017-Dec-30 04:19N 37°58' W 009°54'619.1
2017-Dec-30 04:00N 38°04' W 009°55'1219.1
2017-Dec-30 03:24N 38°16' W 009°59'719.1
2017-Dec-30 03:00N 38°23' W 010°00'1019.2
2017-Dec-30 02:30N 38°32' W 010°02'1019.0
2017-Dec-30 02:00N 38°42' W 010°05'919.0
2017-Dec-30 01:30N 38°51' W 010°05'1019.2
2017-Dec-30 01:00N 39°01' W 010°04'918.8
2017-Dec-30 00:30N 39°10' W 010°04'918.9
2017-Dec-30 00:01N 39°20' W 010°04'69117.3
2017-Dec-28 08:05N 49°49' W 003°21'1519.6
2017-Dec-28 07:20N 49°56' W 003°02'619.3
2017-Dec-28 07:00N 49°59' W 002°53'1019.1
2017-Dec-28 06:30N 50°01' W 002°38'8717.0
2017-Dec-28 01:22N 50°24' W 000°27'617.5
2017-Dec-28 01:00N 50°26' W 000°17'917.9
2017-Dec-28 00:30N 50°29' W 000°04'918.3
2017-Dec-28 00:00N 50°32' E 000°09'918.7
2017-Dec-27 23:30N 50°35' E 000°24'918.8
2017-Dec-27 23:00N 50°37' E 000°38'1019.4
2017-Dec-27 22:30N 50°43' E 000°50'1019.7
2017-Dec-27 21:59N 50°50' E 001°02'1319.3
2017-Dec-27 21:17N 50°59' E 001°18'518.7
2017-Dec-27 21:00N 51°02' E 001°25'917.8
2017-Dec-27 20:30N 51°07' E 001°36'917.4
2017-Dec-27 20:00N 51°14' E 001°45'917.9
2017-Dec-27 19:30N 51°22' E 001°51'817.0
2017-Dec-27 19:00N 51°29' E 001°60'916.9
2017-Dec-27 18:30N 51°34' E 002°10'3613.2
2017-Dec-27 15:45N 51°47' E 003°05'416.6
2017-Dec-27 15:29N 51°47' E 003°12'5 0.7
2017-Dec-27 09:04N 51°46' E 003°19'0 0.0
2017-Dec-27 08:28N 51°46' E 003°19'0 0.0
2017-Dec-27 08:00N 51°46' E 003°19'0 0.0
2017-Dec-27 07:28N 51°46' E 003°19'0 0.0
2017-Dec-27 06:59N 51°46' E 003°19'0 0.0
2017-Dec-27 06:29N 51°46' E 003°19'0 0.0
2017-Dec-27 05:17N 51°46' E 003°19'0 0.0
2017-Dec-27 05:00N 51°46' E 003°19'0 0.0
2017-Dec-27 04:29N 51°46' E 003°19'0 0.0
2017-Dec-27 03:44N 51°46' E 003°19'0 0.0
2017-Dec-27 03:23N 51°46' E 003°19'0 0.0
2017-Dec-27 00:03N 51°46' E 003°19'0 0.0
2017-Dec-26 23:59N 51°46' E 003°19'0 0.0
2017-Dec-26 23:20N 51°46' E 003°19'0 0.0
2017-Dec-26 22:58N 51°46' E 003°19'6612.8
2017-Dec-26 17:48N 52°50' E 003°48'2210.7
2017-Dec-26 15:45N 53°05' E 004°15'2411.3
2017-Dec-26 13:37N 53°26' E 004°35'511.0
2017-Dec-26 13:07N 53°30' E 004°41'111.0
2017-Dec-26 13:00N 53°30' E 004°43'612.5
2017-Dec-26 12:29N 53°33' E 004°53'714.0
2017-Dec-26 12:00N 53°35' E 005°04'714.1
2017-Dec-26 11:28N 53°37' E 005°16'10016.2
2017-Dec-26 05:18N 54°01' E 007°60'618.8
2017-Dec-26 05:00N 54°00' E 008°10'1117.1
2017-Dec-26 04:22N 53°59' E 008°28'716.5
2017-Dec-26 03:58N 53°57' E 008°39'816.2
2017-Dec-26 03:30N 53°51' E 008°46'815.3
2017-Dec-26 03:00N 53°51' E 008°59'612.0
2017-Dec-26 02:30N 53°54' E 009°09'0 0.0
2017-Dec-26 02:00N 53°54' E 009°09'0 0.7
2017-Dec-26 01:30N 53°54' E 009°09'1 2.7
2017-Dec-26 01:00N 53°55' E 009°11'4 8.0
2017-Dec-26 00:31N 53°58' E 009°15'4 8.0
2017-Dec-26 00:00N 54°01' E 009°18'4 7.3
2017-Dec-25 23:30N 54°05' E 009°19'4 7.8
2017-Dec-25 23:00N 54°09' E 009°21'2 4.4
2017-Dec-25 22:30N 54°10' E 009°25'4 8.2
2017-Dec-25 22:00N 54°11' E 009°31'4 8.1
2017-Dec-25 21:31N 54°14' E 009°36'2 4.1
2017-Dec-25 21:00N 54°16' E 009°38'3 5.0
2017-Dec-25 20:30N 54°18' E 009°41'3 6.4
2017-Dec-25 20:00N 54°20' E 009°44'4 7.7
2017-Dec-25 19:30N 54°22' E 009°50'24 4.2
2017-Dec-25 13:50N 54°32' E 010°27'514.8
2017-Dec-25 13:30N 54°34' E 010°34'714.5
2017-Dec-25 13:00N 54°35' E 010°47'714.7
2017-Dec-25 12:30N 54°36' E 010°59'714.7
2017-Dec-25 12:00N 54°36' E 011°12'816.3
2017-Dec-25 11:30N 54°32' E 011°25'918.2
2017-Dec-25 11:00N 54°28' E 011°39'1318.3
2017-Dec-25 10:17N 54°21' E 011°57'518.1
2017-Dec-25 10:00N 54°17' E 012°03'712.4
2017-Dec-25 09:28N 54°10' E 012°06'1 0.2
2017-Dec-25 03:06N 54°09' E 012°07'0 0.0
2017-Dec-24 18:50N 54°09' E 012°07'0 0.0
2017-Dec-24 16:31N 54°09' E 012°07'0 0.0
2017-Dec-24 16:01N 54°09' E 012°07'  

Dump ship's entire track history